EST,Max TemperatureF,Mean TemperatureF,Min TemperatureF,Max Dew PointF,MeanDew PointF,Min DewpointF,Max Humidity, Mean Humidity, Min Humidity, Max Sea Level PressureIn, Mean Sea Level PressureIn, Min Sea Level PressureIn, Max VisibilityMiles, Mean VisibilityMiles, Min VisibilityMiles, Max Wind SpeedMPH, Mean Wind SpeedMPH, Max Gust SpeedMPH,PrecipitationIn, CloudCover, Events, WindDirDegrees
2012-11-1,44,39,34,36,33,27,100,78,55,29.76,29.65,29.59,10,9,3,20,11,31,0.02,8,Rain-Snow,305
2012-11-2,38,35,31,30,26,24,92,76,59,30.10,29.93,29.78,10,10,2,21,11,28,T,7,Snow,326
2012-11-3,36,34,31,30,26,23,85,76,66,30.23,30.19,30.08,10,9,2,16,8,20,T,8,Snow,321
2012-11-4,40,33,25,28,26,21,92,76,59,30.25,30.22,30.17,10,10,10,13,5,15,0.00,6,,328
2012-11-5,35,33,30,27,22,19,85,73,61,30.30,30.25,30.19,10,10,9,13,4,16,T,8,Snow,19
2012-11-6,39,35,30,26,24,21,78,66,54,30.20,30.10,30.04,10,10,10,14,4,18,0.00,8,,166
2012-11-7,41,37,32,32,29,26,82,71,60,30.20,30.14,30.06,10,10,10,13,4,16,0.00,8,,108
2012-11-8,47,37,26,32,29,26,92,73,53,30.22,30.16,30.06,10,10,10,12,4,15,0.00,7,,206
2012-11-9,48,39,29,43,37,27,100,86,71,30.17,30.13,30.08,10,6,2,8,1,9,0.03,7,Rain,188
2012-11-10,47,45,42,46,42,39,100,95,89,30.22,30.10,29.92,10,4,0,20,10,26,0.40,7,Fog-Rain-Thunderstorm,106
2012-11-11,66,54,41,49,46,41,100,78,55,29.97,29.90,29.81,10,7,1,31,13,40,0.00,3,,159
2012-11-12,60,45,29,50,34,18,96,76,55,30.14,29.90,29.77,10,10,4,20,11,29,0.08,8,Rain-Snow,239
2012-11-13,40,31,21,25,22,19,96,75,54,30.53,30.38,30.17,10,10,7,15,6,21,T,4,Snow,239
2012-11-14,41,30,18,23,20,17,92,68,44,30.60,30.54,30.46,10,10,10,16,6,21,0.00,3,,184
2012-11-15,45,35,25,28,26,23,85,65,45,30.45,30.37,30.31,10,10,9,13,5,16,0.00,3,,184
2012-11-16,46,35,23,32,28,21,92,69,45,30.54,30.46,30.33,10,9,4,12,4,15,0.00,2,,304
2012-11-17,51,37,23,37,31,21,100,78,56,30.60,30.56,30.52,10,5,0,7,1,8,0.00,4,Fog,197
2012-11-18,54,40,25,38,31,24,100,81,61,30.56,30.51,30.43,9,4,0,10,3,14,0.00,0,Fog,133
2012-11-19,49,37,24,41,32,23,100,83,65,30.43,30.34,30.18,10,3,0,8,3,10,0.00,5,Fog,147
2012-11-20,51,42,32,39,36,31,100,80,59,30.18,30.14,30.10,10,7,2,7,0,7,T,6,,220
2012-11-21,51,42,32,43,37,34,100,86,71,30.22,30.15,30.02,10,4,0,13,5,16,0.00,6,Fog,201
2012-11-22,62,53,43,44,39,36,89,64,39,30.02,29.84,29.62,10,8,5,23,12,32,T,1,Thunderstorm,201
2012-11-23,57,43,28,47,29,21,92,76,59,29.88,29.62,29.47,10,6,0,25,15,38,0.06,8,Fog-Snow,269
2012-11-24,29,28,26,25,19,15,92,75,58,30.06,29.98,29.86,10,7,1,18,8,26,0.06,8,Snow,304
2012-11-25,32,29,26,28,24,19,92,80,68,29.96,29.83,29.73,10,5,1,14,6,18,0.08,8,Snow,217
2012-11-26,31,27,23,24,21,18,81,72,63,30.29,30.14,29.94,10,9,1,13,6,18,0.01,8,Snow,268
2012-11-27,33,26,19,20,18,16,91,71,51,30.31,30.25,30.12,10,10,10,15,7,20,T,6,,225
2012-11-28,31,28,24,26,21,15,85,72,58,30.25,30.16,30.06,10,9,5,16,8,22,T,7,Snow,266
2012-11-29,36,30,23,28,23,17,85,77,68,30.34,30.22,30.14,10,10,10,13,7,,T,5,,336
2012-11-30,33,30,26,29,25,19,92,84,75,30.39,30.35,30.31,10,6,0,17,11,23,0.11,8,Fog-Snow,80